sensor_id;sensor_type;location;lat;lon;timestamp;P1;durP1;ratioP1;P2;durP2;ratioP2
70414;SDS011;57837;52.064;113.478;2022-12-18T00:02:01;13.45;;;7.25;;
70414;SDS011;57837;52.064;113.478;2022-12-18T00:05:05;16.47;;;10.93;;
70414;SDS011;57837;52.064;113.478;2022-12-18T00:08:09;24.75;;;12.93;;
70414;SDS011;57837;52.064;113.478;2022-12-18T00:11:14;19.60;;;7.35;;
70414;SDS011;57837;52.064;113.478;2022-12-18T00:14:19;35.67;;;17.48;;
70414;SDS011;57837;52.064;113.478;2022-12-18T00:17:22;45.92;;;18.10;;
70414;SDS011;57837;52.064;113.478;2022-12-18T00:20:25;19.95;;;8.15;;
70414;SDS011;57837;52.064;113.478;2022-12-18T00:23:28;20.10;;;10.02;;
70414;SDS011;57837;52.064;113.478;2022-12-18T00:26:32;28.20;;;16.47;;
70414;SDS011;57837;52.064;113.478;2022-12-18T00:29:40;24.10;;;14.57;;
70414;SDS011;57837;52.064;113.478;2022-12-18T00:32:43;33.70;;;17.30;;
70414;SDS011;57837;52.064;113.478;2022-12-18T00:35:47;24.47;;;13.17;;
70414;SDS011;57837;52.064;113.478;2022-12-18T00:38:50;33.53;;;17.60;;
70414;SDS011;57837;52.064;113.478;2022-12-18T00:41:53;39.03;;;17.25;;
70414;SDS011;57837;52.064;113.478;2022-12-18T00:45:15;25.42;;;14.13;;
70414;SDS011;57837;52.064;113.478;2022-12-18T00:48:18;27.75;;;12.60;;
70414;SDS011;57837;52.064;113.478;2022-12-18T00:51:22;33.83;;;12.40;;
70414;SDS011;57837;52.064;113.478;2022-12-18T00:54:26;29.95;;;19.02;;
70414;SDS011;57837;52.064;113.478;2022-12-18T00:57:30;21.43;;;10.50;;
70414;SDS011;57837;52.064;113.478;2022-12-18T01:00:34;52.20;;;29.88;;
70414;SDS011;57837;52.064;113.478;2022-12-18T01:03:39;39.03;;;16.17;;
70414;SDS011;57837;52.064;113.478;2022-12-18T01:06:43;55.10;;;26.63;;
70414;SDS011;57837;52.064;113.478;2022-12-18T01:09:46;31.38;;;16.85;;
70414;SDS011;57837;52.064;113.478;2022-12-18T01:12:50;33.83;;;15.43;;
70414;SDS011;57837;52.064;113.478;2022-12-18T01:15:54;89.80;;;40.55;;
70414;SDS011;57837;52.064;113.478;2022-12-18T01:18:57;74.57;;;30.55;;
70414;SDS011;57837;52.064;113.478;2022-12-18T01:22:01;59.28;;;32.60;;
70414;SDS011;57837;52.064;113.478;2022-12-18T01:25:04;43.25;;;17.50;;
70414;SDS011;57837;52.064;113.478;2022-12-18T01:28:08;61.20;;;26.77;;
70414;SDS011;57837;52.064;113.478;2022-12-18T01:31:45;34.92;;;15.77;;
70414;SDS011;57837;52.064;113.478;2022-12-18T01:34:41;27.20;;;18.13;;
70414;SDS011;57837;52.064;113.478;2022-12-18T01:37:44;67.40;;;32.17;;
70414;SDS011;57837;52.064;113.478;2022-12-18T01:40:47;24.40;;;16.83;;
70414;SDS011;57837;52.064;113.478;2022-12-18T01:43:54;85.75;;;40.60;;
70414;SDS011;57837;52.064;113.478;2022-12-18T01:47:00;62.10;;;27.40;;
70414;SDS011;57837;52.064;113.478;2022-12-18T01:50:09;37.38;;;22.95;;
70414;SDS011;57837;52.064;113.478;2022-12-18T01:53:21;42.55;;;25.15;;
70414;SDS011;57837;52.064;113.478;2022-12-18T01:56:26;54.33;;;25.83;;
70414;SDS011;57837;52.064;113.478;2022-12-18T01:59:30;60.27;;;26.03;;
70414;SDS011;57837;52.064;113.478;2022-12-18T02:02:35;32.15;;;21.35;;
70414;SDS011;57837;52.064;113.478;2022-12-18T02:09:11;41.20;;;23.77;;
70414;SDS011;57837;52.064;113.478;2022-12-18T02:15:31;55.95;;;25.67;;
70414;SDS011;57837;52.064;113.478;2022-12-18T02:18:43;119.88;;;54.35;;
70414;SDS011;57837;52.064;113.478;2022-12-18T02:21:56;54.20;;;31.15;;
70414;SDS011;57837;52.064;113.478;2022-12-18T02:25:19;76.43;;;33.38;;
70414;SDS011;57837;52.064;113.478;2022-12-18T02:28:54;72.60;;;32.53;;
70414;SDS011;57837;52.064;113.478;2022-12-18T02:32:04;74.70;;;37.00;;
70414;SDS011;57837;52.064;113.478;2022-12-18T02:35:16;50.03;;;27.27;;
70414;SDS011;57837;52.064;113.478;2022-12-18T02:38:28;76.82;;;37.60;;
70414;SDS011;57837;52.064;113.478;2022-12-18T02:41:40;53.23;;;32.77;;
70414;SDS011;57837;52.064;113.478;2022-12-18T02:44:45;116.20;;;46.25;;
70414;SDS011;57837;52.064;113.478;2022-12-18T02:47:53;91.38;;;30.20;;
70414;SDS011;57837;52.064;113.478;2022-12-18T02:54:21;48.20;;;19.52;;
70414;SDS011;57837;52.064;113.478;2022-12-18T03:07:36;42.60;;;18.50;;
70414;SDS011;57837;52.064;113.478;2022-12-18T03:10:51;30.42;;;14.88;;
70414;SDS011;57837;52.064;113.478;2022-12-18T03:14:12;49.17;;;23.03;;
70414;SDS011;57837;52.064;113.478;2022-12-18T03:17:22;49.08;;;24.30;;
70414;SDS011;57837;52.064;113.478;2022-12-18T03:20:29;42.17;;;18.90;;
70414;SDS011;57837;52.064;113.478;2022-12-18T03:23:36;39.65;;;15.85;;
70414;SDS011;57837;52.064;113.478;2022-12-18T03:26:51;21.93;;;14.40;;
70414;SDS011;57837;52.064;113.478;2022-12-18T03:30:03;51.95;;;21.58;;
70414;SDS011;57837;52.064;113.478;2022-12-18T03:33:46;51.53;;;29.38;;
70414;SDS011;57837;52.064;113.478;2022-12-18T03:36:48;45.63;;;25.13;;
70414;SDS011;57837;52.064;113.478;2022-12-18T03:39:52;59.58;;;24.50;;
70414;SDS011;57837;52.064;113.478;2022-12-18T03:46:36;115.68;;;44.45;;
70414;SDS011;57837;52.064;113.478;2022-12-18T03:53:05;41.13;;;20.10;;
70414;SDS011;57837;52.064;113.478;2022-12-18T03:56:21;71.20;;;27.33;;
70414;SDS011;57837;52.064;113.478;2022-12-18T03:59:27;38.60;;;19.53;;
70414;SDS011;57837;52.064;113.478;2022-12-18T04:02:32;82.53;;;33.92;;
70414;SDS011;57837;52.064;113.478;2022-12-18T04:05:38;162.68;;;61.97;;
70414;SDS011;57837;52.064;113.478;2022-12-18T04:08:43;125.40;;;45.23;;
70414;SDS011;57837;52.064;113.478;2022-12-18T04:11:51;160.18;;;58.40;;
70414;SDS011;57837;52.064;113.478;2022-12-18T04:14:55;164.25;;;64.53;;
70414;SDS011;57837;52.064;113.478;2022-12-18T04:17:58;106.75;;;43.75;;
70414;SDS011;57837;52.064;113.478;2022-12-18T04:21:10;32.90;;;18.05;;
70414;SDS011;57837;52.064;113.478;2022-12-18T04:24:14;136.27;;;53.95;;
70414;SDS011;57837;52.064;113.478;2022-12-18T04:27:26;135.52;;;48.10;;
70414;SDS011;57837;52.064;113.478;2022-12-18T04:30:33;152.60;;;52.07;;
70414;SDS011;57837;52.064;113.478;2022-12-18T04:33:37;152.80;;;58.67;;
70414;SDS011;57837;52.064;113.478;2022-12-18T04:36:41;157.25;;;58.80;;
70414;SDS011;57837;52.064;113.478;2022-12-18T04:39:47;120.37;;;52.93;;
70414;SDS011;57837;52.064;113.478;2022-12-18T04:42:58;164.43;;;58.63;;
70414;SDS011;57837;52.064;113.478;2022-12-18T04:46:02;83.25;;;34.47;;
70414;SDS011;57837;52.064;113.478;2022-12-18T04:49:09;89.82;;;34.13;;
70414;SDS011;57837;52.064;113.478;2022-12-18T04:52:16;71.57;;;25.77;;
70414;SDS011;57837;52.064;113.478;2022-12-18T04:55:18;39.28;;;18.95;;
70414;SDS011;57837;52.064;113.478;2022-12-18T04:58:22;29.65;;;20.02;;
70414;SDS011;57837;52.064;113.478;2022-12-18T05:01:26;35.63;;;16.93;;
70414;SDS011;57837;52.064;113.478;2022-12-18T05:04:37;48.55;;;18.65;;
70414;SDS011;57837;52.064;113.478;2022-12-18T05:07:40;38.60;;;23.55;;
70414;SDS011;57837;52.064;113.478;2022-12-18T05:10:43;111.80;;;41.53;;
70414;SDS011;57837;52.064;113.478;2022-12-18T05:13:46;45.95;;;21.50;;
70414;SDS011;57837;52.064;113.478;2022-12-18T05:16:50;51.78;;;27.00;;
70414;SDS011;57837;52.064;113.478;2022-12-18T05:19:59;40.63;;;18.38;;
70414;SDS011;57837;52.064;113.478;2022-12-18T05:23:02;63.33;;;28.30;;
70414;SDS011;57837;52.064;113.478;2022-12-18T05:26:05;38.78;;;18.02;;
70414;SDS011;57837;52.064;113.478;2022-12-18T05:29:10;92.38;;;31.73;;
70414;SDS011;57837;52.064;113.478;2022-12-18T05:32:15;61.37;;;22.30;;
70414;SDS011;57837;52.064;113.478;2022-12-18T05:35:19;50.33;;;20.73;;
70414;SDS011;57837;52.064;113.478;2022-12-18T05:38:24;97.38;;;36.50;;
70414;SDS011;57837;52.064;113.478;2022-12-18T05:41:29;48.20;;;18.43;;
70414;SDS011;57837;52.064;113.478;2022-12-18T05:44:32;19.25;;;10.77;;
70414;SDS011;57837;52.064;113.478;2022-12-18T05:47:36;55.05;;;17.58;;
70414;SDS011;57837;52.064;113.478;2022-12-18T05:50:40;27.10;;;15.07;;
70414;SDS011;57837;52.064;113.478;2022-12-18T05:53:45;23.20;;;10.43;;
70414;SDS011;57837;52.064;113.478;2022-12-18T05:56:49;73.07;;;25.23;;
70414;SDS011;57837;52.064;113.478;2022-12-18T05:59:52;63.15;;;27.67;;
70414;SDS011;57837;52.064;113.478;2022-12-18T06:02:56;33.13;;;16.30;;
70414;SDS011;57837;52.064;113.478;2022-12-18T06:06:00;51.50;;;23.08;;
70414;SDS011;57837;52.064;113.478;2022-12-18T06:09:04;92.45;;;34.50;;
70414;SDS011;57837;52.064;113.478;2022-12-18T06:12:12;67.53;;;26.83;;
70414;SDS011;57837;52.064;113.478;2022-12-18T06:15:15;50.13;;;23.50;;
70414;SDS011;57837;52.064;113.478;2022-12-18T06:18:18;59.00;;;22.70;;
70414;SDS011;57837;52.064;113.478;2022-12-18T06:21:21;75.63;;;26.33;;
70414;SDS011;57837;52.064;113.478;2022-12-18T06:24:24;72.03;;;30.38;;
70414;SDS011;57837;52.064;113.478;2022-12-18T06:27:27;79.72;;;29.70;;
70414;SDS011;57837;52.064;113.478;2022-12-18T06:30:30;81.03;;;28.77;;
70414;SDS011;57837;52.064;113.478;2022-12-18T06:33:34;72.57;;;23.23;;
70414;SDS011;57837;52.064;113.478;2022-12-18T06:36:38;35.08;;;10.27;;
70414;SDS011;57837;52.064;113.478;2022-12-18T06:39:41;19.25;;;9.50;;
70414;SDS011;57837;52.064;113.478;2022-12-18T06:42:45;46.03;;;16.13;;
70414;SDS011;57837;52.064;113.478;2022-12-18T06:45:49;16.70;;;9.38;;
70414;SDS011;57837;52.064;113.478;2022-12-18T06:48:55;21.92;;;10.60;;
70414;SDS011;57837;52.064;113.478;2022-12-18T06:51:59;61.70;;;24.08;;
70414;SDS011;57837;52.064;113.478;2022-12-18T06:55:03;11.38;;;6.47;;
70414;SDS011;57837;52.064;113.478;2022-12-18T06:58:09;36.83;;;13.32;;
70414;SDS011;57837;52.064;113.478;2022-12-18T07:01:13;32.63;;;15.20;;
70414;SDS011;57837;52.064;113.478;2022-12-18T07:04:17;34.40;;;10.03;;
70414;SDS011;57837;52.064;113.478;2022-12-18T07:07:21;35.60;;;15.43;;
70414;SDS011;57837;52.064;113.478;2022-12-18T07:10:25;22.48;;;9.40;;
70414;SDS011;57837;52.064;113.478;2022-12-18T07:13:29;18.30;;;10.43;;
70414;SDS011;57837;52.064;113.478;2022-12-18T07:16:32;32.67;;;14.43;;
70414;SDS011;57837;52.064;113.478;2022-12-18T07:19:36;23.92;;;11.77;;
70414;SDS011;57837;52.064;113.478;2022-12-18T07:22:39;42.75;;;10.70;;
70414;SDS011;57837;52.064;113.478;2022-12-18T07:25:44;41.08;;;15.93;;
70414;SDS011;57837;52.064;113.478;2022-12-18T07:28:47;25.88;;;9.93;;
70414;SDS011;57837;52.064;113.478;2022-12-18T07:31:51;41.78;;;16.45;;
70414;SDS011;57837;52.064;113.478;2022-12-18T07:34:54;24.70;;;9.93;;
70414;SDS011;57837;52.064;113.478;2022-12-18T07:37:58;46.80;;;18.05;;
70414;SDS011;57837;52.064;113.478;2022-12-18T07:41:06;29.60;;;12.63;;
70414;SDS011;57837;52.064;113.478;2022-12-18T07:44:13;37.47;;;13.48;;
70414;SDS011;57837;52.064;113.478;2022-12-18T07:47:17;21.25;;;9.77;;
70414;SDS011;57837;52.064;113.478;2022-12-18T07:50:20;26.85;;;11.75;;
70414;SDS011;57837;52.064;113.478;2022-12-18T07:53:24;37.70;;;18.23;;
70414;SDS011;57837;52.064;113.478;2022-12-18T07:56:27;13.27;;;8.20;;
70414;SDS011;57837;52.064;113.478;2022-12-18T07:59:32;18.02;;;11.75;;
70414;SDS011;57837;52.064;113.478;2022-12-18T08:02:36;22.60;;;10.82;;
70414;SDS011;57837;52.064;113.478;2022-12-18T08:05:40;42.57;;;15.83;;
70414;SDS011;57837;52.064;113.478;2022-12-18T08:08:43;74.80;;;32.03;;
70414;SDS011;57837;52.064;113.478;2022-12-18T08:11:47;52.90;;;24.63;;
70414;SDS011;57837;52.064;113.478;2022-12-18T08:14:51;38.63;;;18.80;;
70414;SDS011;57837;52.064;113.478;2022-12-18T08:17:58;107.28;;;37.83;;
70414;SDS011;57837;52.064;113.478;2022-12-18T08:21:08;127.85;;;48.25;;
70414;SDS011;57837;52.064;113.478;2022-12-18T08:24:13;176.68;;;63.40;;
70414;SDS011;57837;52.064;113.478;2022-12-18T08:27:17;130.43;;;41.67;;
70414;SDS011;57837;52.064;113.478;2022-12-18T08:30:35;152.57;;;55.22;;
70414;SDS011;57837;52.064;113.478;2022-12-18T08:33:39;208.65;;;79.88;;
70414;SDS011;57837;52.064;113.478;2022-12-18T08:36:44;115.47;;;39.37;;
70414;SDS011;57837;52.064;113.478;2022-12-18T08:39:47;83.88;;;37.00;;
70414;SDS011;57837;52.064;113.478;2022-12-18T08:42:50;46.03;;;19.60;;
70414;SDS011;57837;52.064;113.478;2022-12-18T08:46:13;127.03;;;52.50;;
70414;SDS011;57837;52.064;113.478;2022-12-18T08:49:16;48.47;;;29.10;;
70414;SDS011;57837;52.064;113.478;2022-12-18T08:52:19;98.50;;;41.95;;
70414;SDS011;57837;52.064;113.478;2022-12-18T08:55:23;43.15;;;23.33;;
70414;SDS011;57837;52.064;113.478;2022-12-18T08:58:27;54.77;;;30.60;;
70414;SDS011;57837;52.064;113.478;2022-12-18T09:01:30;114.97;;;50.85;;
70414;SDS011;57837;52.064;113.478;2022-12-18T09:04:34;110.07;;;49.28;;
70414;SDS011;57837;52.064;113.478;2022-12-18T09:07:38;146.83;;;56.13;;
70414;SDS011;57837;52.064;113.478;2022-12-18T09:10:42;33.25;;;17.98;;
70414;SDS011;57837;52.064;113.478;2022-12-18T09:13:45;79.70;;;29.98;;
70414;SDS011;57837;52.064;113.478;2022-12-18T09:16:48;107.47;;;44.42;;
70414;SDS011;57837;52.064;113.478;2022-12-18T09:19:51;135.25;;;58.92;;
70414;SDS011;57837;52.064;113.478;2022-12-18T09:22:55;82.38;;;38.95;;
70414;SDS011;57837;52.064;113.478;2022-12-18T09:25:58;123.97;;;51.75;;
70414;SDS011;57837;52.064;113.478;2022-12-18T09:29:03;106.67;;;41.53;;
70414;SDS011;57837;52.064;113.478;2022-12-18T09:32:06;84.80;;;37.67;;
70414;SDS011;57837;52.064;113.478;2022-12-18T09:35:10;78.15;;;28.42;;
70414;SDS011;57837;52.064;113.478;2022-12-18T09:38:16;83.47;;;35.33;;
70414;SDS011;57837;52.064;113.478;2022-12-18T09:44:52;69.57;;;30.77;;
70414;SDS011;57837;52.064;113.478;2022-12-18T09:47:57;61.05;;;32.95;;
70414;SDS011;57837;52.064;113.478;2022-12-18T09:51:44;32.58;;;22.20;;
70414;SDS011;57837;52.064;113.478;2022-12-18T09:54:34;17.83;;;15.27;;
70414;SDS011;57837;52.064;113.478;2022-12-18T09:57:49;99.20;;;45.50;;
70414;SDS011;57837;52.064;113.478;2022-12-18T10:00:55;94.10;;;37.83;;
70414;SDS011;57837;52.064;113.478;2022-12-18T10:03:59;60.22;;;28.80;;
70414;SDS011;57837;52.064;113.478;2022-12-18T10:07:47;42.65;;;20.35;;
70414;SDS011;57837;52.064;113.478;2022-12-18T10:10:51;81.80;;;31.63;;
70414;SDS011;57837;52.064;113.478;2022-12-18T10:14:06;28.33;;;16.92;;
70414;SDS011;57837;52.064;113.478;2022-12-18T10:23:34;70.65;;;27.42;;
70414;SDS011;57837;52.064;113.478;2022-12-18T10:26:49;51.55;;;24.15;;
70414;SDS011;57837;52.064;113.478;2022-12-18T10:29:54;13.63;;;10.63;;
70414;SDS011;57837;52.064;113.478;2022-12-18T10:33:00;99.97;;;36.83;;
70414;SDS011;57837;52.064;113.478;2022-12-18T10:36:04;37.22;;;21.00;;
70414;SDS011;57837;52.064;113.478;2022-12-18T10:39:19;47.33;;;23.73;;
70414;SDS011;57837;52.064;113.478;2022-12-18T10:42:24;67.87;;;30.00;;
70414;SDS011;57837;52.064;113.478;2022-12-18T10:45:27;30.55;;;19.33;;
70414;SDS011;57837;52.064;113.478;2022-12-18T10:48:31;33.08;;;18.63;;
70414;SDS011;57837;52.064;113.478;2022-12-18T10:51:36;23.45;;;17.00;;
70414;SDS011;57837;52.064;113.478;2022-12-18T10:54:45;35.30;;;19.77;;
70414;SDS011;57837;52.064;113.478;2022-12-18T10:57:51;50.70;;;22.00;;
70414;SDS011;57837;52.064;113.478;2022-12-18T11:01:11;22.52;;;14.75;;
70414;SDS011;57837;52.064;113.478;2022-12-18T11:07:26;71.90;;;25.08;;
70414;SDS011;57837;52.064;113.478;2022-12-18T11:10:51;43.50;;;22.35;;
70414;SDS011;57837;52.064;113.478;2022-12-18T11:14:00;142.90;;;54.87;;
70414;SDS011;57837;52.064;113.478;2022-12-18T11:17:18;69.82;;;34.45;;
70414;SDS011;57837;52.064;113.478;2022-12-18T11:20:31;56.30;;;26.70;;
70414;SDS011;57837;52.064;113.478;2022-12-18T11:23:46;16.35;;;10.18;;
70414;SDS011;57837;52.064;113.478;2022-12-18T11:26:53;24.90;;;13.07;;
70414;SDS011;57837;52.064;113.478;2022-12-18T11:33:41;29.10;;;9.75;;
70414;SDS011;57837;52.064;113.478;2022-12-18T11:37:09;55.63;;;28.60;;
70414;SDS011;57837;52.064;113.478;2022-12-18T11:40:17;30.05;;;18.15;;
70414;SDS011;57837;52.064;113.478;2022-12-18T11:43:39;32.38;;;20.23;;
70414;SDS011;57837;52.064;113.478;2022-12-18T11:46:53;67.50;;;30.37;;
70414;SDS011;57837;52.064;113.478;2022-12-18T11:50:05;72.50;;;42.65;;
70414;SDS011;57837;52.064;113.478;2022-12-18T11:53:17;66.15;;;37.72;;
70414;SDS011;57837;52.064;113.478;2022-12-18T11:56:36;48.08;;;24.05;;
70414;SDS011;57837;52.064;113.478;2022-12-18T11:59:50;51.25;;;28.33;;
70414;SDS011;57837;52.064;113.478;2022-12-18T12:06:26;92.78;;;44.40;;
70414;SDS011;57837;52.064;113.478;2022-12-18T12:13:02;126.35;;;64.05;;
70414;SDS011;57837;52.064;113.478;2022-12-18T12:16:15;102.53;;;44.83;;
70414;SDS011;57837;52.064;113.478;2022-12-18T12:22:55;66.25;;;32.75;;
70414;SDS011;57837;52.064;113.478;2022-12-18T12:39:36;132.10;;;67.47;;
70414;SDS011;57837;52.064;113.478;2022-12-18T12:42:47;152.03;;;71.83;;
70414;SDS011;57837;52.064;113.478;2022-12-18T12:46:16;161.02;;;69.65;;
70414;SDS011;57837;52.064;113.478;2022-12-18T12:49:25;169.90;;;85.45;;
70414;SDS011;57837;52.064;113.478;2022-12-18T12:52:40;191.50;;;88.20;;
70414;SDS011;57837;52.064;113.478;2022-12-18T12:55:47;106.60;;;57.00;;
70414;SDS011;57837;52.064;113.478;2022-12-18T13:02:20;168.35;;;85.00;;
70414;SDS011;57837;52.064;113.478;2022-12-18T13:08:51;132.60;;;59.60;;
70414;SDS011;57837;52.064;113.478;2022-12-18T13:12:03;107.55;;;48.08;;
70414;SDS011;57837;52.064;113.478;2022-12-18T13:18:48;149.57;;;75.15;;
70414;SDS011;57837;52.064;113.478;2022-12-18T13:21:57;171.80;;;76.97;;
70414;SDS011;57837;52.064;113.478;2022-12-18T13:25:00;68.37;;;33.93;;
70414;SDS011;57837;52.064;113.478;2022-12-18T13:34:44;134.43;;;75.15;;
70414;SDS011;57837;52.064;113.478;2022-12-18T13:37:51;181.25;;;77.18;;
70414;SDS011;57837;52.064;113.478;2022-12-18T13:40:56;131.38;;;67.03;;
70414;SDS011;57837;52.064;113.478;2022-12-18T13:47:57;172.37;;;89.07;;
70414;SDS011;57837;52.064;113.478;2022-12-18T13:54:19;79.93;;;51.38;;
70414;SDS011;57837;52.064;113.478;2022-12-18T13:57:44;146.17;;;73.30;;
70414;SDS011;57837;52.064;113.478;2022-12-18T14:00:48;171.27;;;79.13;;
70414;SDS011;57837;52.064;113.478;2022-12-18T14:04:39;109.90;;;48.78;;
70414;SDS011;57837;52.064;113.478;2022-12-18T14:07:23;77.00;;;42.88;;
70414;SDS011;57837;52.064;113.478;2022-12-18T14:10:32;166.90;;;82.57;;
70414;SDS011;57837;52.064;113.478;2022-12-18T14:13:50;77.57;;;47.45;;
70414;SDS011;57837;52.064;113.478;2022-12-18T14:16:55;129.00;;;68.10;;
70414;SDS011;57837;52.064;113.478;2022-12-18T14:20:00;134.20;;;66.80;;
70414;SDS011;57837;52.064;113.478;2022-12-18T14:23:04;212.70;;;92.47;;
70414;SDS011;57837;52.064;113.478;2022-12-18T14:26:26;163.02;;;75.57;;
70414;SDS011;57837;52.064;113.478;2022-12-18T14:29:34;150.87;;;66.67;;
70414;SDS011;57837;52.064;113.478;2022-12-18T14:32:37;288.20;;;116.38;;
70414;SDS011;57837;52.064;113.478;2022-12-18T14:35:41;236.60;;;104.78;;
70414;SDS011;57837;52.064;113.478;2022-12-18T14:38:55;270.23;;;106.68;;
70414;SDS011;57837;52.064;113.478;2022-12-18T14:42:00;219.20;;;95.75;;
70414;SDS011;57837;52.064;113.478;2022-12-18T14:48:43;300.60;;;125.28;;
70414;SDS011;57837;52.064;113.478;2022-12-18T14:51:54;215.73;;;107.20;;
70414;SDS011;57837;52.064;113.478;2022-12-18T14:55:19;178.93;;;82.68;;
70414;SDS011;57837;52.064;113.478;2022-12-18T14:58:23;284.33;;;109.55;;
70414;SDS011;57837;52.064;113.478;2022-12-18T15:01:36;263.63;;;117.63;;
70414;SDS011;57837;52.064;113.478;2022-12-18T15:04:47;217.40;;;104.13;;
70414;SDS011;57837;52.064;113.478;2022-12-18T15:08:02;252.57;;;104.97;;
70414;SDS011;57837;52.064;113.478;2022-12-18T15:11:24;213.75;;;114.57;;
70414;SDS011;57837;52.064;113.478;2022-12-18T15:14:32;305.95;;;122.57;;
70414;SDS011;57837;52.064;113.478;2022-12-18T15:17:37;133.98;;;63.10;;
70414;SDS011;57837;52.064;113.478;2022-12-18T15:26:52;200.98;;;90.68;;
70414;SDS011;57837;52.064;113.478;2022-12-18T15:30:00;287.80;;;120.03;;
70414;SDS011;57837;52.064;113.478;2022-12-18T15:33:22;212.20;;;86.77;;
70414;SDS011;57837;52.064;113.478;2022-12-18T15:36:28;155.70;;;73.68;;
70414;SDS011;57837;52.064;113.478;2022-12-18T15:39:32;251.48;;;103.90;;
70414;SDS011;57837;52.064;113.478;2022-12-18T15:42:37;236.57;;;103.45;;
70414;SDS011;57837;52.064;113.478;2022-12-18T15:46:02;156.73;;;81.88;;
70414;SDS011;57837;52.064;113.478;2022-12-18T15:49:15;168.35;;;61.22;;
70414;SDS011;57837;52.064;113.478;2022-12-18T15:52:20;147.38;;;72.13;;
70414;SDS011;57837;52.064;113.478;2022-12-18T15:55:28;122.33;;;54.73;;
70414;SDS011;57837;52.064;113.478;2022-12-18T15:58:51;144.20;;;70.13;;
70414;SDS011;57837;52.064;113.478;2022-12-18T16:01:54;199.02;;;84.45;;
70414;SDS011;57837;52.064;113.478;2022-12-18T16:04:59;182.03;;;84.37;;
70414;SDS011;57837;52.064;113.478;2022-12-18T16:08:03;193.65;;;69.15;;
70414;SDS011;57837;52.064;113.478;2022-12-18T16:11:11;120.20;;;57.53;;
70414;SDS011;57837;52.064;113.478;2022-12-18T16:14:40;137.10;;;62.83;;
70414;SDS011;57837;52.064;113.478;2022-12-18T16:17:45;138.55;;;72.03;;
70414;SDS011;57837;52.064;113.478;2022-12-18T16:20:49;118.07;;;66.97;;
70414;SDS011;57837;52.064;113.478;2022-12-18T16:23:53;81.13;;;40.70;;
70414;SDS011;57837;52.064;113.478;2022-12-18T16:26:57;140.47;;;64.63;;
70414;SDS011;57837;52.064;113.478;2022-12-18T16:30:02;182.77;;;78.25;;
70414;SDS011;57837;52.064;113.478;2022-12-18T16:33:08;233.65;;;90.15;;
70414;SDS011;57837;52.064;113.478;2022-12-18T16:36:13;146.73;;;70.23;;
70414;SDS011;57837;52.064;113.478;2022-12-18T16:39:17;136.43;;;63.00;;
70414;SDS011;57837;52.064;113.478;2022-12-18T16:42:20;109.72;;;52.30;;
70414;SDS011;57837;52.064;113.478;2022-12-18T16:45:24;104.72;;;43.63;;
70414;SDS011;57837;52.064;113.478;2022-12-18T16:48:27;178.30;;;69.35;;
70414;SDS011;57837;52.064;113.478;2022-12-18T16:51:31;129.02;;;66.43;;
70414;SDS011;57837;52.064;113.478;2022-12-18T16:54:35;120.93;;;55.55;;
70414;SDS011;57837;52.064;113.478;2022-12-18T16:57:39;175.63;;;68.87;;
70414;SDS011;57837;52.064;113.478;2022-12-18T17:00:43;179.68;;;69.88;;
70414;SDS011;57837;52.064;113.478;2022-12-18T17:03:57;139.98;;;61.90;;
70414;SDS011;57837;52.064;113.478;2022-12-18T17:07:06;250.60;;;101.67;;
70414;SDS011;57837;52.064;113.478;2022-12-18T17:10:10;175.10;;;83.45;;
70414;SDS011;57837;52.064;113.478;2022-12-18T17:13:14;311.35;;;122.70;;
70414;SDS011;57837;52.064;113.478;2022-12-18T17:16:27;183.00;;;83.30;;
70414;SDS011;57837;52.064;113.478;2022-12-18T17:19:31;205.85;;;72.82;;
70414;SDS011;57837;52.064;113.478;2022-12-18T17:22:35;185.55;;;72.90;;
70414;SDS011;57837;52.064;113.478;2022-12-18T17:25:42;159.68;;;68.45;;
70414;SDS011;57837;52.064;113.478;2022-12-18T17:28:46;173.37;;;66.67;;
70414;SDS011;57837;52.064;113.478;2022-12-18T17:31:49;127.55;;;55.88;;
70414;SDS011;57837;52.064;113.478;2022-12-18T17:34:54;83.22;;;46.38;;
70414;SDS011;57837;52.064;113.478;2022-12-18T17:37:57;94.17;;;38.70;;
70414;SDS011;57837;52.064;113.478;2022-12-18T17:41:05;78.15;;;37.10;;
70414;SDS011;57837;52.064;113.478;2022-12-18T17:44:10;64.20;;;31.10;;
70414;SDS011;57837;52.064;113.478;2022-12-18T17:47:14;89.28;;;38.78;;
70414;SDS011;57837;52.064;113.478;2022-12-18T17:50:18;73.95;;;45.30;;
70414;SDS011;57837;52.064;113.478;2022-12-18T17:53:22;99.88;;;42.70;;
70414;SDS011;57837;52.064;113.478;2022-12-18T17:56:26;192.18;;;68.80;;
70414;SDS011;57837;52.064;113.478;2022-12-18T17:59:30;156.13;;;58.63;;
70414;SDS011;57837;52.064;113.478;2022-12-18T18:02:33;76.68;;;45.80;;
70414;SDS011;57837;52.064;113.478;2022-12-18T18:05:37;137.20;;;56.13;;
70414;SDS011;57837;52.064;113.478;2022-12-18T18:08:41;105.73;;;47.80;;
70414;SDS011;57837;52.064;113.478;2022-12-18T18:11:44;147.52;;;60.60;;
70414;SDS011;57837;52.064;113.478;2022-12-18T18:15:07;76.90;;;44.75;;
70414;SDS011;57837;52.064;113.478;2022-12-18T18:18:12;117.35;;;56.17;;
70414;SDS011;57837;52.064;113.478;2022-12-18T18:21:18;163.23;;;63.35;;
70414;SDS011;57837;52.064;113.478;2022-12-18T18:24:23;82.15;;;38.80;;
70414;SDS011;57837;52.064;113.478;2022-12-18T18:27:27;83.78;;;43.90;;
70414;SDS011;57837;52.064;113.478;2022-12-18T18:30:40;104.00;;;43.07;;
70414;SDS011;57837;52.064;113.478;2022-12-18T18:33:44;108.30;;;44.25;;
70414;SDS011;57837;52.064;113.478;2022-12-18T18:36:48;93.28;;;38.00;;
70414;SDS011;57837;52.064;113.478;2022-12-18T18:39:53;117.90;;;51.37;;
70414;SDS011;57837;52.064;113.478;2022-12-18T18:43:00;139.55;;;57.70;;
70414;SDS011;57837;52.064;113.478;2022-12-18T18:46:08;130.35;;;47.80;;
70414;SDS011;57837;52.064;113.478;2022-12-18T18:49:15;71.32;;;35.08;;
70414;SDS011;57837;52.064;113.478;2022-12-18T18:52:19;81.07;;;47.13;;
70414;SDS011;57837;52.064;113.478;2022-12-18T18:55:22;82.82;;;33.90;;
70414;SDS011;57837;52.064;113.478;2022-12-18T18:58:27;59.55;;;29.17;;
70414;SDS011;57837;52.064;113.478;2022-12-18T19:01:33;65.67;;;30.50;;
70414;SDS011;57837;52.064;113.478;2022-12-18T19:04:38;79.97;;;28.42;;
70414;SDS011;57837;52.064;113.478;2022-12-18T19:07:48;132.15;;;54.28;;
70414;SDS011;57837;52.064;113.478;2022-12-18T19:10:52;114.00;;;37.70;;
70414;SDS011;57837;52.064;113.478;2022-12-18T19:13:59;112.45;;;44.72;;
70414;SDS011;57837;52.064;113.478;2022-12-18T19:17:06;106.75;;;46.38;;
70414;SDS011;57837;52.064;113.478;2022-12-18T19:20:11;160.32;;;60.15;;